Time;durP1;ratioP1;P1;durP2;ratioP2;P2;SDS_P1;SDS_P2;PMS_P1;PMS_P2;Temp;Humidity;BMP_temperature;BMP_pressure;BME280_temperature;BME280_humidity;BME280_pressure;Samples;Min_cycle;Max_cycle;Signal;HPM_P1;HPM_P2
2021/08/25 00:01:28;;;;;;;;;;;;;;;-144.99;82.83;52289.13;5004879;28;20025;-60
2021/08/25 00:03:56;;;;;;;;;;;;;;;-144.99;83.32;52289.13;5010865;28;19977;-60
2021/08/25 00:06:22;;;;;;;;;;;;;;;-144.99;83.42;52232.03;5016179;28;19977;-60
2021/08/25 00:08:48;;;;;;;;;;;;;;;-144.99;84.03;52283.00;5014705;28;19996;-60
2021/08/25 00:11:15;;;;;;;;;;;;;;;-144.99;84.29;52289.13;4993549;28;20072;-60
2021/08/25 00:13:41;;;;;;;;;;;;;;;-144.99;84.24;52319.69;4990633;28;19977;-60
2021/08/25 00:16:08;;;;;;;;;;;;;;;-144.99;83.77;52272.81;4990048;28;20052;-61
2021/08/25 00:18:34;;;;;;;;;;;;;;;-144.99;83.09;52311.53;4996755;28;19973;-63
2021/08/25 00:21:02;;;;;;;;;;;;;;;-144.99;82.84;52260.56;5008488;28;20067;-62
2021/08/25 00:23:28;;;;;;;;;;;;;;;-144.99;82.84;52289.13;4989949;28;20070;-62
2021/08/25 00:25:56;;;;;;;;;;;;;;;-144.99;83.69;52293.19;4990388;28;19983;-62
2021/08/25 00:28:22;;;;;;;;;;;;;;;-144.99;84.43;52293.19;4990665;28;20020;-62
2021/08/25 00:30:49;;;;;;;;;;;;;;;-144.99;84.84;52248.34;5014372;28;19982;-65
2021/08/25 00:33:15;;;;;;;;;;;;;;;-144.99;85.19;52244.28;5016069;28;20067;-65
2021/08/25 00:35:42;;;;;;;;;;;;;;;-144.99;85.65;52240.19;4998006;28;20066;-65
2021/08/25 00:38:10;;;;;;;;;;;;;;;-144.99;85.86;52268.72;5017410;28;20079;-65
2021/08/25 00:40:36;;;;;;;;;;;;;;;-144.99;86.05;52268.72;4992991;28;20084;-65
2021/08/25 00:43:06;;;;;;;;;;;;;;;-144.99;86.36;52303.38;4990162;28;20373;-62
2021/08/25 00:45:33;;;;;;;;;;;;;;;-144.99;86.47;52276.88;4990075;28;19993;-62
2021/08/25 00:48:00;;;;;;;;;;;;;;;-144.99;86.96;52280.97;4989201;28;19988;-62
2021/08/25 00:50:26;;;;;;;;;;;;;;;-144.99;87.37;52285.03;4989650;28;19999;-63
2021/08/25 00:52:52;;;;;;;;;;;;;;;-144.99;87.35;52264.66;4989362;28;19984;-60
2021/08/25 00:55:20;;;;;;;;;;;;;;;-144.99;87.37;52256.50;5000722;28;19968;-61
2021/08/25 00:57:47;;;;;;;;;;;;;;;-144.99;87.06;52278.91;5001460;28;19993;-61
2021/08/25 01:00:14;;;;;;;;;;;;;;;-144.99;86.81;52254.47;4993708;28;19988;-61
2021/08/25 01:02:44;;;;;;;;;;;;;;;-144.99;86.62;52268.72;5008894;28;20250;-60
2021/08/25 01:05:11;;;;;;;;;;;;;;;-144.99;86.64;52268.72;5017109;28;20466;-61
2021/08/25 01:07:37;;;;;;;;;;;;;;;-144.99;86.90;52276.88;5016288;28;19973;-60
2021/08/25 01:10:19;;;;;;;;;;;;;;;-144.99;87.33;52272.81;5003106;28;20078;-60
2021/08/25 01:12:46;;;;;;;;;;;;;;;-144.99;87.74;52280.97;4989760;28;19987;-60
2021/08/25 01:15:13;;;;;;;;;;;;;;;-144.99;88.18;52297.25;4989912;28;19987;-60
2021/08/25 01:17:40;;;;;;;;;;;;;;;-144.99;88.33;52242.22;4995339;28;20477;-60
2021/08/25 01:20:09;;;;;;;;;;;;;;;-144.99;88.20;52301.34;4997366;28;20051;-60
2021/08/25 01:22:36;;;;;;;;;;;;;;;-144.99;88.33;52242.22;5004770;28;19977;-61
2021/08/25 01:25:02;;;;;;;;;;;;;;;-144.99;88.53;52309.50;4989849;28;20054;-61
2021/08/25 01:27:30;;;;;;;;;;;;;;;-144.99;88.56;52289.13;4989594;28;19983;-61
2021/08/25 01:29:59;;;;;;;;;;;;;;;-144.99;88.59;52301.34;5002249;28;20014;-62
2021/08/25 01:32:26;;;;;;;;;;;;;;;-144.99;88.35;52285.03;5012315;28;19972;-63
2021/08/25 01:34:54;;;;;;;;;;;;;;;-144.99;89.09;52260.56;5002241;28;19977;-63
2021/08/25 01:37:20;;;;;;;;;;;;;;;-144.99;88.96;52289.13;5012105;28;20068;-61
2021/08/25 01:39:47;;;;;;;;;;;;;;;-144.99;89.13;52285.03;5005958;28;20069;-63
2021/08/25 01:42:13;;;;;;;;;;;;;;;-144.99;89.15;52276.88;4989918;28;19988;-62
2021/08/25 01:44:40;;;;;;;;;;;;;;;-144.99;89.72;52252.44;4989644;28;20510;-63
2021/08/25 01:47:08;;;;;;;;;;;;;;;-144.99;90.14;52268.72;4989684;28;19988;-63
2021/08/25 01:49:34;;;;;;;;;;;;;;;-144.99;90.28;52301.34;4990496;28;20014;-62
2021/08/25 01:52:00;;;;;;;;;;;;;;;-144.99;90.87;52258.53;4990092;28;19976;-62
2021/08/25 01:54:27;;;;;;;;;;;;;;;-144.99;91.35;52260.56;4989719;28;20334;-64
2021/08/25 01:56:53;;;;;;;;;;;;;;;-144.99;91.57;52272.81;5020842;28;20500;-62
2021/08/25 01:59:20;;;;;;;;;;;;;;;-144.99;91.95;52285.03;4996016;28;19994;-64
2021/08/25 02:01:46;;;;;;;;;;;;;;;-144.99;92.20;52301.34;5006038;28;20067;-61
2021/08/25 02:04:14;;;;;;;;;;;;;;;-144.99;92.01;52278.91;5007662;28;20512;-62
2021/08/25 02:06:40;;;;;;;;;;;;;;;-144.99;91.60;52252.44;5017380;28;19973;-61
2021/08/25 02:09:07;;;;;;;;;;;;;;;-144.99;90.88;52305.41;5001008;28;20360;-61
2021/08/25 02:11:34;;;;;;;;;;;;;;;-144.99;90.54;52276.88;4991385;28;20085;-61
2021/08/25 02:14:00;;;;;;;;;;;;;;;-144.99;90.62;52289.13;4992584;28;19966;-61
2021/08/25 02:16:26;;;;;;;;;;;;;;;-144.99;90.65;52236.13;4992425;28;20374;-60
2021/08/25 02:18:53;;;;;;;;;;;;;;;-144.99;90.84;52252.44;4999228;28;20083;-61
2021/08/25 02:21:22;;;;;;;;;;;;;;;-144.99;91.06;52317.66;5003558;28;19973;-61
2021/08/25 02:23:50;;;;;;;;;;;;;;;-144.99;91.28;52250.38;4992895;28;19980;-61
2021/08/25 02:26:17;;;;;;;;;;;;;;;-144.99;92.00;52219.81;4992892;28;19992;-60
2021/08/25 02:28:44;;;;;;;;;;;;;;;-144.99;92.67;52301.34;4992378;28;20450;-58
2021/08/25 02:31:11;;;;;;;;;;;;;;;-144.99;92.77;52268.72;5022245;28;19936;-58
2021/08/25 02:33:37;;;;;;;;;;;;;;;-144.99;92.66;52258.53;5011816;28;19977;-58
2021/08/25 02:36:04;;;;;;;;;;;;;;;-144.99;92.89;52280.97;5005958;28;19977;-59
2021/08/25 02:38:32;;;;;;;;;;;;;;;-144.99;92.96;52289.13;5016731;28;20008;-58
2021/08/25 02:40:58;;;;;;;;;;;;;;;-144.99;92.70;52285.03;4992350;28;20440;-59
2021/08/25 02:43:24;;;;;;;;;;;;;;;-144.99;93.12;52301.34;4992432;28;19981;-59
2021/08/25 02:45:51;;;;;;;;;;;;;;;-144.99;93.40;52252.44;4991825;28;19977;-60
2021/08/25 02:48:17;;;;;;;;;;;;;;;-144.99;93.60;52264.66;4991496;28;19991;-59
2021/08/25 02:50:44;;;;;;;;;;;;;;;-144.99;93.63;52280.97;4991592;28;20000;-59
2021/08/25 02:53:10;;;;;;;;;;;;;;;-144.99;94.29;52264.66;4993796;28;19976;-59
2021/08/25 02:55:38;;;;;;;;;;;;;;;-144.99;94.66;52280.97;5017681;28;20443;-59
2021/08/25 02:58:04;;;;;;;;;;;;;;;-144.99;94.73;52278.91;4999089;28;20000;-62
2021/08/25 03:00:31;;;;;;;;;;;;;;;-144.99;94.91;52260.56;4997788;28;20428;-63
2021/08/25 03:02:57;;;;;;;;;;;;;;;-144.99;95.22;52285.03;5011285;28;19988;-63
2021/08/25 03:05:23;;;;;;;;;;;;;;;-144.99;95.51;52276.88;5019307;28;20469;-63
2021/08/25 03:07:50;;;;;;;;;;;;;;;-144.99;95.70;52270.78;5005744;28;19973;-63
2021/08/25 03:10:16;;;;;;;;;;;;;;;-144.99;95.60;52256.50;5004822;28;20225;-61
2021/08/25 03:12:44;;;;;;;;;;;;;;;-144.99;95.25;52256.50;4991977;28;20006;-62
2021/08/25 03:15:11;;;;;;;;;;;;;;;-144.99;94.73;52268.72;4991816;28;19984;-61
2021/08/25 03:17:37;;;;;;;;;;;;;;;-144.99;94.43;52272.81;4997654;28;20433;-62
2021/08/25 03:20:05;;;;;;;;;;;;;;;-144.99;94.03;52248.34;4998872;28;19991;-61
2021/08/25 03:22:31;;;;;;;;;;;;;;;-144.99;93.83;52227.97;4994621;28;19987;-61
2021/08/25 03:24:58;;;;;;;;;;;;;;;-144.99;94.28;52280.97;4991468;28;20012;-63
2021/08/25 03:27:24;;;;;;;;;;;;;;;-144.99;94.50;52297.25;4991225;28;19987;-63
2021/08/25 03:29:52;;;;;;;;;;;;;;;-144.99;94.41;52262.63;5002371;28;20107;-63
2021/08/25 03:32:18;;;;;;;;;;;;;;;-144.99;94.66;52289.13;5014444;28;20055;-63
2021/08/25 03:34:45;;;;;;;;;;;;;;;-144.99;94.58;52268.72;5005495;28;20059;-63
2021/08/25 03:37:11;;;;;;;;;;;;;;;-144.99;94.80;52260.56;5011748;28;20072;-62
2021/08/25 03:39:37;;;;;;;;;;;;;;;-144.99;94.85;52289.13;4999832;28;20390;-62
2021/08/25 03:42:04;;;;;;;;;;;;;;;-144.99;95.00;52309.50;4991333;28;19977;-63
2021/08/25 03:44:30;;;;;;;;;;;;;;;-144.99;95.37;52280.97;4991576;28;20066;-62
2021/08/25 03:46:58;;;;;;;;;;;;;;;-144.99;95.41;52264.66;4991346;28;19950;-63
2021/08/25 03:49:25;;;;;;;;;;;;;;;-144.99;95.27;52268.72;4991250;28;19999;-63
2021/08/25 03:51:51;;;;;;;;;;;;;;;-144.99;95.17;52264.66;4991446;28;19977;-61
2021/08/25 03:54:17;;;;;;;;;;;;;;;-144.99;95.14;52260.56;4991398;28;19977;-61
2021/08/25 03:56:44;;;;;;;;;;;;;;;-144.99;95.56;52280.97;5014225;28;20428;-61
2021/08/25 03:59:10;;;;;;;;;;;;;;;-144.99;95.81;52276.88;4990567;28;20004;-60
2021/08/25 04:01:37;;;;;;;;;;;;;;;-144.99;96.77;52276.88;5005608;28;20311;-63
2021/08/25 04:04:06;;;;;;;;;;;;;;;-144.99;97.17;52260.56;4998483;28;20068;-64
2021/08/25 04:06:32;;;;;;;;;;;;;;;-144.99;97.63;52289.13;5016886;28;19986;-64
2021/08/25 04:08:59;;;;;;;;;;;;;;;-144.99;97.83;52211.66;5014777;28;19987;-64
2021/08/25 04:11:25;;;;;;;;;;;;;;;-144.99;98.32;52280.97;5017109;28;19982;-64
2021/08/25 04:13:52;;;;;;;;;;;;;;;-144.99;98.18;52272.81;4990633;28;20036;-64
2021/08/25 04:16:18;;;;;;;;;;;;;;;-144.99;98.44;52248.34;4990321;28;19984;-63
2021/08/25 04:18:45;;;;;;;;;;;;;;;-144.99;98.59;52276.88;4996304;28;20361;-64
2021/08/25 04:21:12;;;;;;;;;;;;;;;-144.99;98.89;52252.44;5001036;28;19972;-64
2021/08/25 04:23:39;;;;;;;;;;;;;;;-144.99;99.15;52270.78;4990651;28;19986;-65
2021/08/25 04:26:05;;;;;;;;;;;;;;;-144.99;99.45;52252.44;4990928;28;20054;-65
2021/08/25 04:28:32;;;;;;;;;;;;;;;-144.99;99.60;52285.03;4990167;28;19975;-64
2021/08/25 04:30:58;;;;;;;;;;;;;;;-144.99;100.00;52244.28;5009919;28;20023;-64
2021/08/25 04:33:24;;;;;;;;;;;;;;;-144.99;100.00;52260.56;5017378;28;19977;-66
2021/08/25 04:35:51;;;;;;;;;;;;;;;-144.99;100.00;52256.50;5000872;28;19975;-65
2021/08/25 04:38:19;;;;;;;;;;;;;;;-144.99;100.00;52240.19;5017302;28;20013;-65
2021/08/25 04:40:46;;;;;;;;;;;;;;;-144.99;100.00;52252.44;4989852;28;20430;-64
2021/08/25 04:43:12;;;;;;;;;;;;;;;-144.99;100.00;52248.34;4989806;28;20078;-64
2021/08/25 04:45:39;;;;;;;;;;;;;;;-144.99;100.00;52260.56;4996629;28;20460;-64
2021/08/25 04:48:05;;;;;;;;;;;;;;;-144.99;100.00;52254.47;5008652;28;19997;-64
2021/08/25 04:50:32;;;;;;;;;;;;;;;-144.99;100.00;52242.22;4989836;28;20007;-68
2021/08/25 04:52:59;;;;;;;;;;;;;;;-144.99;100.00;52236.13;4990404;28;20055;-65
2021/08/25 04:55:28;;;;;;;;;;;;;;;-144.99;100.00;52240.19;5004268;28;20058;-65
2021/08/25 04:57:54;;;;;;;;;;;;;;;-144.99;100.00;52246.31;5002744;28;20002;-66
2021/08/25 05:00:21;;;;;;;;;;;;;;;-144.99;100.00;52244.28;4996435;28;20500;-66
2021/08/25 05:02:47;;;;;;;;;;;;;;;-144.99;100.00;52207.59;5010358;28;20058;-65
2021/08/25 05:05:14;;;;;;;;;;;;;;;-144.99;100.00;52232.03;4337069;23;10001757;-74
2021/08/25 05:07:40;;;;;;;;;;;;;;;-144.99;100.00;52248.34;5025880;28;19982;-74
2021/08/25 05:10:07;;;;;;;;;;;;;;;-144.99;100.00;52276.88;5033023;28;20177;-75
2021/08/25 05:12:34;;;;;;;;;;;;;;;-144.99;100.00;52264.66;5013374;28;19976;-76
2021/08/25 05:15:01;;;;;;;;;;;;;;;-144.99;100.00;52223.88;5027344;28;19991;-74
2021/08/25 05:17:27;;;;;;;;;;;;;;;-144.99;100.00;52254.47;5029023;28;20071;-73
2021/08/25 05:19:54;;;;;;;;;;;;;;;-144.99;100.00;52262.63;5028267;28;20003;-75
2021/08/25 05:22:20;;;;;;;;;;;;;;;-144.99;100.00;52270.78;5029082;28;20071;-73
2021/08/25 05:24:46;;;;;;;;;;;;;;;-144.99;100.00;52266.69;5016163;28;20067;-74
2021/08/25 05:27:13;;;;;;;;;;;;;;;-144.99;100.00;52244.28;5019756;28;20047;-74
2021/08/25 05:29:41;;;;;;;;;;;;;;;-144.99;100.00;52248.34;5020909;28;20217;-74
2021/08/25 05:32:07;;;;;;;;;;;;;;;-144.99;100.00;52227.97;5028773;28;19975;-74
2021/08/25 05:34:34;;;;;;;;;;;;;;;-144.99;100.00;52219.81;5035360;28;19981;-74
2021/08/25 05:37:00;;;;;;;;;;;;;;;-144.99;100.00;52236.13;5032738;28;19972;-74
2021/08/25 05:39:26;;;;;;;;;;;;;;;-144.99;100.00;52258.53;5015848;28;20524;-74
2021/08/25 05:41:53;;;;;;;;;;;;;;;-144.99;100.00;52232.03;5022542;28;20341;-75
2021/08/25 05:44:19;;;;;;;;;;;;;;;-144.99;100.00;52232.03;5026669;28;20289;-75
2021/08/25 05:46:47;;;;;;;;;;;;;;;-144.99;100.00;52252.44;5028298;28;20066;-74
2021/08/25 05:49:14;;;;;;;;;;;;;;;-144.99;100.00;52232.03;5030117;28;19992;-74
2021/08/25 05:51:40;;;;;;;;;;;;;;;-144.99;100.00;52256.50;5030493;28;20075;-74
2021/08/25 05:54:08;;;;;;;;;;;;;;;-144.99;100.00;52236.13;5031124;28;20027;-77
2021/08/25 05:56:35;;;;;;;;;;;;;;;-144.99;100.00;52240.19;5041792;28;20131;-77
2021/08/25 05:59:01;;;;;;;;;;;;;;;-144.99;100.00;52264.66;5030182;28;20004;-74
2021/08/25 06:01:28;;;;;;;;;;;;;;;-144.99;100.00;52248.34;5019200;28;20710;-73
2021/08/25 06:03:55;;;;;;;;;;;;;;;-144.99;100.00;52223.88;5030257;28;19951;-74
2021/08/25 06:06:22;;;;;;;;;;;;;;;-144.99;100.00;52211.66;5033711;28;19982;-74
2021/08/25 06:08:48;;;;;;;;;;;;;;;-144.99;100.00;52203.50;5035623;28;20140;-74
2021/08/25 06:11:15;;;;;;;;;;;;;;;-144.99;100.00;52179.06;5030934;28;19980;-75
2021/08/25 06:13:41;;;;;;;;;;;;;;;-144.99;100.00;52207.59;5017755;28;19980;-74
2021/08/25 06:16:08;;;;;;;;;;;;;;;-144.99;100.00;52199.44;5029514;28;19991;-74
2021/08/25 06:18:34;;;;;;;;;;;;;;;-144.99;100.00;52244.28;5033533;28;19992;-75
2021/08/25 06:21:02;;;;;;;;;;;;;;;-144.99;100.00;52221.84;5034934;28;19977;-75
2021/08/25 06:23:28;;;;;;;;;;;;;;;-144.99;100.00;52211.66;5029258;28;19977;-74
2021/08/25 06:25:55;;;;;;;;;;;;;;;-144.99;99.57;52191.28;5022977;28;20015;-75
2021/08/25 06:28:21;;;;;;;;;;;;;;;-144.99;98.89;52205.53;5023010;28;19977;-74
2021/08/25 06:30:48;;;;;;;;;;;;;;;-144.99;98.89;52242.22;5033821;28;19992;-74
2021/08/25 06:33:14;;;;;;;;;;;;;;;-144.99;98.28;52252.44;5026828;28;19991;-74
2021/08/25 06:35:40;;;;;;;;;;;;;;;-144.99;97.18;52207.59;5020547;28;20016;-75
2021/08/25 06:38:08;;;;;;;;;;;;;;;-144.99;96.84;52199.44;5029652;28;19976;-75
2021/08/25 06:40:35;;;;;;;;;;;;;;;-144.99;96.33;52174.97;5016251;28;20367;-75
2021/08/25 06:43:01;;;;;;;;;;;;;;;-144.99;96.11;52191.28;5029109;28;20466;-75
2021/08/25 06:45:27;;;;;;;;;;;;;;;-144.99;95.86;52201.47;5029699;28;19977;-76
2021/08/25 06:47:54;;;;;;;;;;;;;;;-144.99;95.13;52219.81;5028851;28;19981;-76
2021/08/25 06:50:20;;;;;;;;;;;;;;;-144.99;93.31;52203.50;5027672;28;19985;-75
2021/08/25 06:52:47;;;;;;;;;;;;;;;-144.99;92.17;52230.00;5029267;28;19977;-75
2021/08/25 06:55:15;;;;;;;;;;;;;;;-144.99;91.70;52211.66;5035192;28;20060;-76
2021/08/25 06:57:41;;;;;;;;;;;;;;;-144.99;91.04;52164.78;5083477;22;19996;-77
2021/08/25 07:00:08;;;;;;;;;;;;;;;-144.99;90.30;52179.06;5079446;28;19991;-77
2021/08/25 07:02:34;;;;;;;;;;;;;;;-144.99;89.09;52187.19;5061167;28;19962;-76
2021/08/25 07:05:00;;;;;;;;;;;;;;;-144.99;88.84;52174.97;5063361;28;19962;-77
2021/08/25 07:07:27;;;;;;;;;;;;;;;-144.99;89.18;52215.75;5064511;28;20454;-77
2021/08/25 07:09:53;;;;;;;;;;;;;;;-144.99;88.67;52154.59;5044045;28;20493;-77
2021/08/25 07:12:21;;;;;;;;;;;;;;;-144.99;88.13;52154.59;5047766;28;20463;-78
2021/08/25 07:14:47;;;;;;;;;;;;;;;-144.99;87.76;52174.97;5050024;28;19980;-77
2021/08/25 07:17:15;;;;;;;;;;;;;;;-144.99;86.23;52168.84;5052627;28;19981;-76
2021/08/25 07:19:42;;;;;;;;;;;;;;;-144.99;85.57;52172.94;5049786;28;19991;-77
2021/08/25 07:22:09;;;;;;;;;;;;;;;-144.99;85.69;52201.47;5053928;28;19921;-78
2021/08/25 07:24:35;;;;;;;;;;;;;;;-144.99;84.93;52191.28;5049798;28;20126;-77
2021/08/25 07:27:01;;;;;;;;;;;;;;;-144.99;84.29;52183.13;5049167;28;20000;-76
2021/08/25 07:29:29;;;;;;;;;;;;;;;-144.99;84.04;52166.81;5051249;28;19976;-76
2021/08/25 07:31:55;;;;;;;;;;;;;;;-144.99;83.50;52199.44;5052775;28;19972;-77
2021/08/25 07:34:22;;;;;;;;;;;;;;;-144.99;83.13;52195.34;5056756;28;20340;-77
2021/08/25 07:36:48;;;;;;;;;;;;;;;-144.99;83.16;52179.06;5057348;28;19976;-76
2021/08/25 07:39:14;;;;;;;;;;;;;;;-144.99;81.15;52189.25;5058935;28;19984;-78
2021/08/25 07:41:40;;;;;;;;;;;;;;;-144.99;80.36;52150.53;5049404;28;20329;-78
2021/08/25 07:44:07;;;;;;;;;;;;;;;-144.99;80.06;52162.75;5048873;28;19998;-76
2021/08/25 07:46:35;;;;;;;;;;;;;;;-144.99;79.76;52207.59;5048051;28;19992;-77
2021/08/25 07:49:02;;;;;;;;;;;;;;;-144.99;80.31;52174.97;5047970;28;19983;-78
2021/08/25 07:51:28;;;;;;;;;;;;;;;-144.99;79.93;52170.91;5048122;28;20065;-76
2021/08/25 07:53:55;;;;;;;;;;;;;;;-144.99;80.34;52170.91;5048868;28;20063;-77
2021/08/25 07:56:21;;;;;;;;;;;;;;;-144.99;79.19;52170.91;5059898;28;20078;-77
2021/08/25 07:58:47;;;;;;;;;;;;;;;-144.99;79.53;52179.06;5046812;28;19985;-76
2021/08/25 08:01:14;;;;;;;;;;;;;;;-144.99;79.15;52164.78;5045148;28;19977;-77
2021/08/25 08:03:42;;;;;;;;;;;;;;;-144.99;77.77;52160.72;5048469;28;20019;-76
2021/08/25 08:06:08;;;;;;;;;;;;;;;-144.99;77.15;52168.84;5047104;28;19986;-76
2021/08/25 08:08:34;;;;;;;;;;;;;;;-144.99;75.90;52158.66;5051409;28;19974;-77
2021/08/25 08:11:01;;;;;;;;;;;;;;;-144.99;74.96;52195.34;5050516;28;19974;-76
2021/08/25 08:13:27;;;;;;;;;;;;;;;-144.99;75.48;52158.66;5046801;28;20445;-77
2021/08/25 08:15:54;;;;;;;;;;;;;;;-144.99;75.64;52164.78;5047368;28;19953;-78
2021/08/25 08:18:29;;;;;;;;;;;;;;;-144.99;76.13;52193.31;5051571;28;20076;-79
2021/08/25 08:20:56;;;;;;;;;;;;;;;-144.99;76.95;52168.84;5052186;28;19971;-77
2021/08/25 08:23:23;;;;;;;;;;;;;;;-144.99;77.62;52142.38;5051793;28;20074;-76
2021/08/25 08:25:49;;;;;;;;;;;;;;;-144.99;78.45;52179.06;5058862;28;19954;-77
2021/08/25 08:28:16;;;;;;;;;;;;;;;-144.99;78.17;52162.75;5056106;28;19978;-76
2021/08/25 08:30:42;;;;;;;;;;;;;;;-144.99;77.58;52195.34;5046607;28;20454;-77
2021/08/25 08:33:09;;;;;;;;;;;;;;;-144.99;76.78;52134.22;5056116;28;19948;-77
2021/08/25 08:35:36;;;;;;;;;;;;;;;-144.99;76.38;52187.19;5051320;28;20373;-76
2021/08/25 08:38:04;;;;;;;;;;;;;;;-144.99;76.52;52195.34;5056886;28;20490;-77
2021/08/25 08:40:31;;;;;;;;;;;;;;;-144.99;77.55;52179.06;5046805;28;19976;-76
2021/08/25 08:43:04;;;;;;;;;;;;;;;-144.99;77.50;52183.13;5048079;28;20125;-77
2021/08/25 08:45:33;;;;;;;;;;;;;;;-144.99;79.00;52205.53;5047597;28;19948;-76
2021/08/25 08:48:01;;;;;;;;;;;;;;;-144.99;79.86;52215.75;5048211;28;19992;-77
2021/08/25 08:50:28;;;;;;;;;;;;;;;-144.99;80.90;52219.81;5056082;28;20006;-76
2021/08/25 08:52:54;;;;;;;;;;;;;;;-144.99;81.13;52150.53;5055438;28;20037;-75
2021/08/25 08:55:23;;;;;;;;;;;;;;;-144.99;81.19;52201.47;5054659;28;20430;-76
2021/08/25 08:57:49;;;;;;;;;;;;;;;-144.99;82.04;52162.75;5054474;28;20393;-76
2021/08/25 09:00:16;;;;;;;;;;;;;;;-144.99;82.31;52185.16;5036500;28;20368;-75
2021/08/25 09:02:43;;;;;;;;;;;;;;;-144.99;81.40;52219.81;5042393;28;19971;-75
2021/08/25 09:05:16;;;;;;;;;;;;;;;-144.99;82.22;52199.44;5048297;28;20438;-75
2021/08/25 09:07:47;;;;;;;;;;;;;;;-144.99;81.89;52215.75;5056360;28;19983;-77
2021/08/25 09:10:13;;;;;;;;;;;;;;;-144.99;82.01;52195.34;5054792;28;20003;-78
2021/08/25 09:12:48;;;;;;;;;;;;;;;-144.99;80.66;52179.06;5048789;28;19954;-78
2021/08/25 09:15:18;;;;;;;;;;;;;;;-144.99;80.35;52154.59;5048423;28;19956;-77
2021/08/25 09:17:44;;;;;;;;;;;;;;;-144.99;80.01;52162.75;5050353;28;19921;-77
2021/08/25 09:20:11;;;;;;;;;;;;;;;-144.99;79.26;52136.25;5053472;28;20746;-78
2021/08/25 09:22:38;;;;;;;;;;;;;;;-144.99;78.13;52174.97;5052566;28;19954;-78
2021/08/25 09:25:05;;;;;;;;;;;;;;;-144.99;75.62;52166.81;5051989;28;19952;-79
2021/08/25 09:27:31;;;;;;;;;;;;;;;-144.99;71.68;52146.44;5051789;28;20003;-77
2021/08/25 09:30:01;;;;;;;;;;;;;;;-144.99;69.77;52174.97;5050986;28;20484;-77
2021/08/25 09:32:28;;;;;;;;;;;;;;;-144.99;69.89;52170.91;5051927;28;20148;-77
2021/08/25 09:34:56;;;;;;;;;;;;;;;-144.99;69.59;52154.59;5057103;28;19993;-79
2021/08/25 09:37:22;;;;;;;;;;;;;;;-144.99;70.12;52130.13;5060587;28;20494;-78
2021/08/25 09:39:50;;;;;;;;;;;;;;;-144.99;70.79;52187.19;5059694;28;19979;-77
2021/08/25 09:42:18;;;;;;;;;;;;;;;-144.99;71.33;52154.59;5051942;28;19987;-78
2021/08/25 09:44:45;;;;;;;;;;;;;;;-144.99;69.10;52154.59;5052236;28;20335;-77
2021/08/25 09:47:13;;;;;;;;;;;;;;;-144.99;64.39;52146.44;5051516;28;20061;-78
2021/08/25 09:49:40;;;;;;;;;;;;;;;-144.99;63.18;52097.53;5051784;28;19954;-77
2021/08/25 09:52:06;;;;;;;;;;;;;;;-144.99;62.72;52154.59;5051942;28;19957;-78
2021/08/25 09:54:33;;;;;;;;;;;;;;;-144.99;62.72;52187.19;5051824;28;19977;-78
2021/08/25 09:56:59;;;;;;;;;;;;;;;-144.99;62.94;52150.53;5051352;28;20115;-78
2021/08/25 09:59:26;;;;;;;;;;;;;;;-144.99;62.96;52142.38;5050689;28;19965;-78
2021/08/25 10:01:53;;;;;;;;;;;;;;;-144.99;61.40;52146.44;5042708;28;19940;-76
2021/08/25 10:04:20;;;;;;;;;;;;;;;-144.99;61.40;52134.22;5051907;28;20540;-78
2021/08/25 10:06:48;;;;;;;;;;;;;;;-144.99;63.07;52185.16;5058529;28;20011;-78
2021/08/25 10:09:15;;;;;;;;;;;;;;;-144.99;64.08;52154.59;5059840;28;19927;-77
2021/08/25 10:11:42;;;;;;;;;;;;;;;-144.99;64.28;52166.81;5051732;28;19920;-76
2021/08/25 10:14:10;;;;;;;;;;;;;;;-144.99;65.70;52187.19;5050856;28;19941;-77
2021/08/25 10:16:39;;;;;;;;;;;;;;;-144.99;66.68;52211.66;5050056;28;19963;-77
2021/08/25 10:19:24;;;;;;;;;;;;;;;-144.99;66.01;52183.13;5053676;28;19950;-77
2021/08/25 10:21:52;;;;;;;;;;;;;;;-144.99;66.72;52183.13;5069389;28;19953;-76
2021/08/25 10:24:19;;;;;;;;;;;;;;;-144.99;66.66;52166.81;5051603;28;20030;-77
2021/08/25 10:27:05;;;;;;;;;;;;;;;-144.99;66.95;52174.97;5051569;28;19969;-76
2021/08/25 10:29:32;;;;;;;;;;;;;;;-144.99;66.62;52187.19;5038187;28;19938;-78
2021/08/25 10:32:19;;;;;;;;;;;;;;;-144.99;67.16;52183.13;5049724;28;19943;-75
2021/08/25 10:35:05;;;;;;;;;;;;;;;-144.99;67.84;52195.34;5046283;28;19957;-77
2021/08/25 10:37:33;;;;;;;;;;;;;;;-144.99;67.86;52199.44;5065477;28;20000;-77
2021/08/25 10:40:01;;;;;;;;;;;;;;;-144.99;69.66;52258.53;5056954;28;20006;-77
2021/08/25 10:42:48;;;;;;;;;;;;;;;-144.99;70.80;52223.88;5037658;28;20017;-76
2021/08/25 10:45:15;;;;;;;;;;;;;;;-144.99;71.76;52197.41;5050393;28;19977;-77
2021/08/25 10:47:55;;;;;;;;;;;;;;;-144.99;72.47;52215.75;5049500;28;20741;-78
2021/08/25 10:50:21;;;;;;;;;;;;;;;-144.99;72.72;52199.44;5049613;28;19951;-76
2021/08/25 10:52:49;;;;;;;;;;;;;;;-144.99;73.03;52223.88;5049235;28;19981;-78
2021/08/25 10:55:15;;;;;;;;;;;;;;;-144.99;74.14;52187.19;5054012;28;19947;-78
2021/08/25 10:57:44;;;;;;;;;;;;;;;-144.99;74.38;52234.09;5056727;28;19995;-78
2021/08/25 11:00:11;;;;;;;;;;;;;;;-144.99;74.49;52223.88;5045313;28;19987;-76
2021/08/25 11:02:38;;;;;;;;;;;;;;;-144.99;74.92;52240.19;5030679;28;19989;-76
2021/08/25 11:05:05;;;;;;;;;;;;;;;-144.99;75.40;52227.97;5050123;28;19971;-76
2021/08/25 11:07:31;;;;;;;;;;;;;;;-144.99;76.45;52199.44;5051670;28;19987;-77
2021/08/25 11:09:59;;;;;;;;;;;;;;;-144.99;76.96;52256.50;5049723;28;20146;-76
2021/08/25 11:12:25;;;;;;;;;;;;;;;-144.99;77.62;52248.34;5050075;28;19984;-76
2021/08/25 11:14:53;;;;;;;;;;;;;;;-144.99;80.01;52236.13;5050171;28;19979;-76
2021/08/25 11:17:20;;;;;;;;;;;;;;;-144.99;81.91;52215.75;5053605;28;20080;-76
2021/08/25 11:19:47;;;;;;;;;;;;;;;-144.99;83.36;52195.34;5049042;28;20484;-77
2021/08/25 11:22:18;;;;;;;;;;;;;;;-144.99;83.97;52227.97;5049622;28;19969;-77
2021/08/25 11:24:46;;;;;;;;;;;;;;;-144.99;84.18;52244.28;5050272;28;20399;-77
2021/08/25 11:27:21;;;;;;;;;;;;;;;-144.99;84.20;52256.50;5049981;28;20023;-76
2021/08/25 11:29:59;;;;;;;;;;;;;;;-144.99;83.92;52256.50;5066643;28;20018;-76
2021/08/25 11:32:26;;;;;;;;;;;;;;;-144.99;84.06;52207.59;5070471;28;19971;-76
2021/08/25 11:34:52;;;;;;;;;;;;;;;-144.99;84.21;52215.75;5056471;28;19981;-75
2021/08/25 11:37:19;;;;;;;;;;;;;;;-144.99;84.68;52223.88;5057676;28;19988;-77
2021/08/25 11:39:55;;;;;;;;;;;;;;;-144.99;84.23;52244.28;5057374;28;19976;-77
2021/08/25 11:42:27;;;;;;;;;;;;;;;-144.99;84.13;52203.50;5050161;28;19981;-76
2021/08/25 11:44:54;;;;;;;;;;;;;;;-144.99;83.76;52199.44;5047895;28;19981;-76
2021/08/25 11:47:20;;;;;;;;;;;;;;;-144.99;83.64;52203.50;5047970;28;19921;-76
2021/08/25 11:49:48;;;;;;;;;;;;;;;-144.99;83.45;52219.81;5050080;28;19957;-76
2021/08/25 11:52:16;;;;;;;;;;;;;;;-144.99;83.17;52227.97;5055478;28;20061;-76
2021/08/25 11:54:43;;;;;;;;;;;;;;;-144.99;83.78;52217.78;5051700;28;20171;-76
2021/08/25 11:57:11;;;;;;;;;;;;;;;-144.99;83.66;52223.88;5061053;28;20183;-77
2021/08/25 11:59:54;;;;;;;;;;;;;;;-144.99;83.68;52211.66;5042446;28;19985;-76
2021/08/25 12:02:21;;;;;;;;;;;;;;;-144.99;84.20;52187.19;5048297;28;19975;-76
2021/08/25 12:04:47;;;;;;;;;;;;;;;-144.99;84.55;52223.88;5053619;28;20344;-75
2021/08/25 12:07:14;;;;;;;;;;;;;;;-144.99;85.46;52213.69;5060152;28;20081;-77
2021/08/25 12:09:40;;;;;;;;;;;;;;;-144.99;86.04;52205.53;5055171;28;19975;-76
2021/08/25 12:12:07;;;;;;;;;;;;;;;-144.99;88.58;52219.81;5048960;28;19947;-77
2021/08/25 12:14:54;;;;;;;;;;;;;;;-144.99;89.11;52227.97;5048190;28;20024;-76
2021/08/25 12:17:21;;;;;;;;;;;;;;;-144.99;89.75;52248.34;5050938;28;19958;-76
2021/08/25 12:19:58;;;;;;;;;;;;;;;-144.99;90.59;52221.84;5048495;28;19973;-78
2021/08/25 12:22:26;;;;;;;;;;;;;;;-144.99;93.47;52232.03;5048209;28;20079;-77
2021/08/25 12:24:52;;;;;;;;;;;;;;;-144.99;94.36;52240.19;5048513;28;19956;-77
2021/08/25 12:27:19;;;;;;;;;;;;;;;-144.99;94.22;52232.03;5048515;28;20003;-77